Airfield :
LOGIN :

Register | Disclaimer

   EN    FR    IT 

 










Legend :    VFR   Marginal VFR   IFR   Intensive IFR   Very Intensive IFR
Visi :
Ceiling :
>= 8 km
>= 3000ft
5 to 8 km
1000 to 3000 ft
1500m to 5 km
500 to 1000 ft
800 to 1500m
200 to 500 ft
< 800m
< 200 ft
Symbols :   Thunderstorms  Fog  Heavy snow  Heavy precipitations  Wind > 20 kt
SIGMETs :     Misc.  Thunderstorms  Icing  Turbulence  Mountain Waves  Volcanic Ashes






- Airport Elevation : 204 ft
- IATA code : AGF


LFBA - Agen

CURRENT METAR :
  • 212330Z AUTO 12006KT CAVOK 05/04 Q1002

EXPIRED METARs :
  • 212300Z AUTO 12005KT CAVOK 04/03 Q1002
  • 212230Z AUTO 11004KT CAVOK 05/03 Q1002
  • 212200Z AUTO 16002KT CAVOK 07/06 Q1002
  • 212130Z AUTO 08005KT 040V150 CAVOK 07/05 Q1002
  • 212100Z AUTO 12004KT 070V180 CAVOK 08/05 Q1002 TEMPO 4000 RA BKN030 SCT040CB

TAF AMD TAF LFBA
Valid from the 21 at 19:00 until the 22 at 03:00 UTC


211940Z 2119/2203 19007KT CAVOK
PROB40
TEMPO 2119/2124 4000 RA BKN030 SCT040CB



MET'MAP, your aeronautical weather chart ! - Copyright ORBIFLY December 2007 - Disclaimer

ORBIFLY MET'MAP TEAM :

Programming & Development : Alexandra Zaïnal
Concept & original design : Baudouin d'Aumeries
Assistance for programming : Marc-Olivier Méhu
Technical & hardware support : Manuel Goepfert

Contact : metmap@orbifly.com




SOURCES & CREDITS :

   NOAA